sensor_id;sensor_type;location;lat;lon;timestamp;temperature;humidity
66710;DHT22;53624;0.000;0.000;2023-03-01T00:01:39;8.60;82.70
66710;DHT22;53624;0.000;0.000;2023-03-01T00:04:07;8.60;82.70
66710;DHT22;53624;0.000;0.000;2023-03-01T00:06:34;8.60;82.70
66710;DHT22;53624;0.000;0.000;2023-03-01T00:09:02;8.60;82.70
66710;DHT22;53624;0.000;0.000;2023-03-01T00:11:30;8.60;82.80
66710;DHT22;53624;0.000;0.000;2023-03-01T00:13:59;8.60;82.80
66710;DHT22;53624;0.000;0.000;2023-03-01T00:16:28;8.60;82.80
66710;DHT22;53624;0.000;0.000;2023-03-01T00:18:57;8.50;82.70
66710;DHT22;53624;0.000;0.000;2023-03-01T00:21:24;8.50;82.80
66710;DHT22;53624;0.000;0.000;2023-03-01T00:23:52;8.50;82.70
66710;DHT22;53624;0.000;0.000;2023-03-01T00:26:21;8.50;82.80
66710;DHT22;53624;0.000;0.000;2023-03-01T00:28:49;8.50;82.80
66710;DHT22;53624;0.000;0.000;2023-03-01T00:31:18;8.50;82.80
66710;DHT22;53624;0.000;0.000;2023-03-01T00:33:47;8.50;82.80
66710;DHT22;53624;0.000;0.000;2023-03-01T00:36:15;8.50;82.80
66710;DHT22;53624;0.000;0.000;2023-03-01T00:38:43;8.50;82.80
66710;DHT22;53624;0.000;0.000;2023-03-01T00:41:12;8.50;82.80
66710;DHT22;53624;0.000;0.000;2023-03-01T00:43:39;8.50;82.80
66710;DHT22;53624;0.000;0.000;2023-03-01T00:46:08;8.50;82.80
66710;DHT22;53624;0.000;0.000;2023-03-01T00:48:36;8.50;82.80
66710;DHT22;53624;0.000;0.000;2023-03-01T00:51:05;8.50;82.80
66710;DHT22;53624;0.000;0.000;2023-03-01T00:53:33;8.50;82.80
66710;DHT22;53624;0.000;0.000;2023-03-01T00:56:01;8.50;82.90
66710;DHT22;53624;0.000;0.000;2023-03-01T00:58:29;8.50;82.80
66710;DHT22;53624;0.000;0.000;2023-03-01T01:00:56;8.50;82.90
66710;DHT22;53624;0.000;0.000;2023-03-01T01:03:24;8.40;82.80
66710;DHT22;53624;0.000;0.000;2023-03-01T01:05:51;8.50;82.90
66710;DHT22;53624;0.000;0.000;2023-03-01T01:08:20;8.40;82.90
66710;DHT22;53624;0.000;0.000;2023-03-01T01:10:48;8.40;82.90
66710;DHT22;53624;0.000;0.000;2023-03-01T01:13:15;8.40;82.90
66710;DHT22;53624;0.000;0.000;2023-03-01T01:15:43;8.40;82.80
66710;DHT22;53624;0.000;0.000;2023-03-01T01:18:10;8.40;82.90
66710;DHT22;53624;0.000;0.000;2023-03-01T01:20:38;8.40;83.00
66710;DHT22;53624;0.000;0.000;2023-03-01T01:23:05;8.40;82.90
66710;DHT22;53624;0.000;0.000;2023-03-01T01:25:35;8.40;83.00
66710;DHT22;53624;0.000;0.000;2023-03-01T01:28:03;8.40;83.00
66710;DHT22;53624;0.000;0.000;2023-03-01T01:30:30;8.40;83.00
66710;DHT22;53624;0.000;0.000;2023-03-01T01:32:58;8.40;83.00
66710;DHT22;53624;0.000;0.000;2023-03-01T01:35:26;8.40;83.00
66710;DHT22;53624;0.000;0.000;2023-03-01T01:37:54;8.40;83.00
66710;DHT22;53624;0.000;0.000;2023-03-01T01:40:22;8.40;83.00
66710;DHT22;53624;0.000;0.000;2023-03-01T01:42:50;8.40;83.00
66710;DHT22;53624;0.000;0.000;2023-03-01T01:45:26;8.40;83.00
66710;DHT22;53624;0.000;0.000;2023-03-01T01:47:54;8.40;83.00
66710;DHT22;53624;0.000;0.000;2023-03-01T01:50:23;8.30;82.90
66710;DHT22;53624;0.000;0.000;2023-03-01T01:52:50;8.30;83.00
66710;DHT22;53624;0.000;0.000;2023-03-01T01:55:19;8.30;82.90
66710;DHT22;53624;0.000;0.000;2023-03-01T01:57:49;8.30;82.90
66710;DHT22;53624;0.000;0.000;2023-03-01T02:00:22;8.30;82.90
66710;DHT22;53624;0.000;0.000;2023-03-01T02:02:50;8.30;82.90
66710;DHT22;53624;0.000;0.000;2023-03-01T02:05:22;8.30;82.90
66710;DHT22;53624;0.000;0.000;2023-03-01T02:07:51;8.30;82.90
66710;DHT22;53624;0.000;0.000;2023-03-01T02:10:19;8.30;82.90
66710;DHT22;53624;0.000;0.000;2023-03-01T02:12:47;8.30;82.90
66710;DHT22;53624;0.000;0.000;2023-03-01T02:15:14;8.30;82.90
66710;DHT22;53624;0.000;0.000;2023-03-01T02:17:43;8.30;82.90
66710;DHT22;53624;0.000;0.000;2023-03-01T02:20:13;8.30;82.90
66710;DHT22;53624;0.000;0.000;2023-03-01T02:22:42;8.30;83.00
66710;DHT22;53624;0.000;0.000;2023-03-01T02:25:12;8.30;83.00
66710;DHT22;53624;0.000;0.000;2023-03-01T02:27:47;8.30;83.00
66710;DHT22;53624;0.000;0.000;2023-03-01T02:30:18;8.20;82.90
66710;DHT22;53624;0.000;0.000;2023-03-01T02:32:46;8.30;83.00
66710;DHT22;53624;0.000;0.000;2023-03-01T02:35:14;8.30;83.00
66710;DHT22;53624;0.000;0.000;2023-03-01T02:37:42;8.30;83.00
66710;DHT22;53624;0.000;0.000;2023-03-01T02:40:11;8.20;83.00
66710;DHT22;53624;0.000;0.000;2023-03-01T02:42:43;8.20;83.00
66710;DHT22;53624;0.000;0.000;2023-03-01T02:45:12;8.20;83.00
66710;DHT22;53624;0.000;0.000;2023-03-01T02:47:41;8.20;83.00
66710;DHT22;53624;0.000;0.000;2023-03-01T02:50:12;8.20;83.00
66710;DHT22;53624;0.000;0.000;2023-03-01T02:52:43;8.20;83.00
66710;DHT22;53624;0.000;0.000;2023-03-01T02:55:13;8.20;83.00
66710;DHT22;53624;0.000;0.000;2023-03-01T02:57:42;8.20;83.00
66710;DHT22;53624;0.000;0.000;2023-03-01T03:00:11;8.20;83.00
66710;DHT22;53624;0.000;0.000;2023-03-01T03:02:47;8.20;83.00
66710;DHT22;53624;0.000;0.000;2023-03-01T03:05:18;8.20;83.00
66710;DHT22;53624;0.000;0.000;2023-03-01T03:07:47;8.20;83.10
66710;DHT22;53624;0.000;0.000;2023-03-01T03:10:15;8.20;83.10
66710;DHT22;53624;0.000;0.000;2023-03-01T03:12:43;8.20;83.10
66710;DHT22;53624;0.000;0.000;2023-03-01T03:15:10;8.20;83.10
66710;DHT22;53624;0.000;0.000;2023-03-01T03:17:39;8.10;83.10
66710;DHT22;53624;0.000;0.000;2023-03-01T03:20:09;8.10;83.00
66710;DHT22;53624;0.000;0.000;2023-03-01T03:22:38;8.20;83.10
66710;DHT22;53624;0.000;0.000;2023-03-01T03:25:05;8.10;83.10
66710;DHT22;53624;0.000;0.000;2023-03-01T03:27:36;8.10;83.10
66710;DHT22;53624;0.000;0.000;2023-03-01T03:30:05;8.10;83.10
66710;DHT22;53624;0.000;0.000;2023-03-01T03:32:34;8.10;83.10
66710;DHT22;53624;0.000;0.000;2023-03-01T03:35:02;8.10;83.10
66710;DHT22;53624;0.000;0.000;2023-03-01T03:37:37;8.10;83.10
66710;DHT22;53624;0.000;0.000;2023-03-01T03:40:22;8.10;83.10
66710;DHT22;53624;0.000;0.000;2023-03-01T03:42:49;8.10;83.10
66710;DHT22;53624;0.000;0.000;2023-03-01T03:45:17;8.10;83.20
66710;DHT22;53624;0.000;0.000;2023-03-01T03:47:44;8.10;83.10
66710;DHT22;53624;0.000;0.000;2023-03-01T03:50:12;8.10;83.20
66710;DHT22;53624;0.000;0.000;2023-03-01T03:52:42;8.10;83.10
66710;DHT22;53624;0.000;0.000;2023-03-01T03:55:10;8.10;83.20
66710;DHT22;53624;0.000;0.000;2023-03-01T03:57:37;8.10;83.20
66710;DHT22;53624;0.000;0.000;2023-03-01T04:00:06;8.10;83.20
66710;DHT22;53624;0.000;0.000;2023-03-01T04:02:38;8.10;83.20
66710;DHT22;53624;0.000;0.000;2023-03-01T04:05:06;8.10;83.20
66710;DHT22;53624;0.000;0.000;2023-03-01T04:07:34;8.10;83.20
66710;DHT22;53624;0.000;0.000;2023-03-01T04:10:03;8.10;83.30
66710;DHT22;53624;0.000;0.000;2023-03-01T04:12:30;8.10;83.20
66710;DHT22;53624;0.000;0.000;2023-03-01T04:14:59;8.10;83.20
66710;DHT22;53624;0.000;0.000;2023-03-01T04:17:27;8.10;83.30
66710;DHT22;53624;0.000;0.000;2023-03-01T04:19:54;8.10;83.30
66710;DHT22;53624;0.000;0.000;2023-03-01T04:22:22;8.10;83.30
66710;DHT22;53624;0.000;0.000;2023-03-01T04:24:55;8.10;83.30
66710;DHT22;53624;0.000;0.000;2023-03-01T04:27:24;8.10;83.30
66710;DHT22;53624;0.000;0.000;2023-03-01T04:29:52;8.00;83.30
66710;DHT22;53624;0.000;0.000;2023-03-01T04:32:20;8.00;83.30
66710;DHT22;53624;0.000;0.000;2023-03-01T04:34:47;8.00;83.30
66710;DHT22;53624;0.000;0.000;2023-03-01T04:37:14;8.00;83.30
66710;DHT22;53624;0.000;0.000;2023-03-01T04:39:42;8.00;83.40
66710;DHT22;53624;0.000;0.000;2023-03-01T04:42:11;8.00;83.40
66710;DHT22;53624;0.000;0.000;2023-03-01T04:44:40;8.00;83.40
66710;DHT22;53624;0.000;0.000;2023-03-01T04:47:07;8.00;83.40
66710;DHT22;53624;0.000;0.000;2023-03-01T04:49:35;8.00;83.40
66710;DHT22;53624;0.000;0.000;2023-03-01T04:52:02;8.00;83.40
66710;DHT22;53624;0.000;0.000;2023-03-01T04:54:30;8.00;83.40
66710;DHT22;53624;0.000;0.000;2023-03-01T04:56:58;8.00;83.40
66710;DHT22;53624;0.000;0.000;2023-03-01T04:59:25;8.00;83.40
66710;DHT22;53624;0.000;0.000;2023-03-01T05:01:55;8.00;83.40
66710;DHT22;53624;0.000;0.000;2023-03-01T05:04:22;8.00;83.40
66710;DHT22;53624;0.000;0.000;2023-03-01T05:06:50;8.00;83.40
66710;DHT22;53624;0.000;0.000;2023-03-01T05:09:19;8.00;83.30
66710;DHT22;53624;0.000;0.000;2023-03-01T05:11:46;8.00;83.40
66710;DHT22;53624;0.000;0.000;2023-03-01T05:14:14;8.00;83.40
66710;DHT22;53624;0.000;0.000;2023-03-01T05:16:41;8.00;83.40
66710;DHT22;53624;0.000;0.000;2023-03-01T05:19:10;8.00;83.50
66710;DHT22;53624;0.000;0.000;2023-03-01T05:21:41;8.00;83.50
66710;DHT22;53624;0.000;0.000;2023-03-01T05:24:22;8.00;83.50
66710;DHT22;53624;0.000;0.000;2023-03-01T05:26:50;8.00;83.50
66710;DHT22;53624;0.000;0.000;2023-03-01T05:29:18;7.90;83.50
66710;DHT22;53624;0.000;0.000;2023-03-01T05:31:51;7.90;83.50
66710;DHT22;53624;0.000;0.000;2023-03-01T05:34:22;7.90;83.60
66710;DHT22;53624;0.000;0.000;2023-03-01T05:36:49;7.90;83.60
66710;DHT22;53624;0.000;0.000;2023-03-01T05:39:19;7.90;83.60
66710;DHT22;53624;0.000;0.000;2023-03-01T05:41:48;7.90;83.60
66710;DHT22;53624;0.000;0.000;2023-03-01T05:44:18;7.90;83.70
66710;DHT22;53624;0.000;0.000;2023-03-01T05:46:46;7.90;83.70
66710;DHT22;53624;0.000;0.000;2023-03-01T05:49:13;7.90;83.70
66710;DHT22;53624;0.000;0.000;2023-03-01T05:51:51;7.90;83.70
66710;DHT22;53624;0.000;0.000;2023-03-01T05:54:19;7.90;83.70
66710;DHT22;53624;0.000;0.000;2023-03-01T05:56:46;7.90;83.70
66710;DHT22;53624;0.000;0.000;2023-03-01T05:59:14;7.90;83.80
66710;DHT22;53624;0.000;0.000;2023-03-01T06:01:42;7.90;83.80
66710;DHT22;53624;0.000;0.000;2023-03-01T06:04:09;7.90;84.00
66710;DHT22;53624;0.000;0.000;2023-03-01T06:06:37;7.90;83.90
66710;DHT22;53624;0.000;0.000;2023-03-01T06:09:06;7.90;83.90
66710;DHT22;53624;0.000;0.000;2023-03-01T06:11:35;7.90;84.00
66710;DHT22;53624;0.000;0.000;2023-03-01T06:14:03;7.90;84.00
66710;DHT22;53624;0.000;0.000;2023-03-01T06:16:32;7.90;83.90
66710;DHT22;53624;0.000;0.000;2023-03-01T06:18:59;7.90;83.90
66710;DHT22;53624;0.000;0.000;2023-03-01T06:21:27;7.80;83.90
66710;DHT22;53624;0.000;0.000;2023-03-01T06:23:54;7.80;83.90
66710;DHT22;53624;0.000;0.000;2023-03-01T06:26:23;7.80;83.90
66710;DHT22;53624;0.000;0.000;2023-03-01T06:28:50;7.90;83.90
66710;DHT22;53624;0.000;0.000;2023-03-01T06:31:18;7.80;83.90
66710;DHT22;53624;0.000;0.000;2023-03-01T06:33:45;7.80;83.90
66710;DHT22;53624;0.000;0.000;2023-03-01T06:36:13;7.80;83.90
66710;DHT22;53624;0.000;0.000;2023-03-01T06:38:44;7.80;83.90
66710;DHT22;53624;0.000;0.000;2023-03-01T06:41:11;7.80;83.90
66710;DHT22;53624;0.000;0.000;2023-03-01T06:43:40;7.80;83.90
66710;DHT22;53624;0.000;0.000;2023-03-01T06:46:08;7.80;83.90
66710;DHT22;53624;0.000;0.000;2023-03-01T06:48:35;7.80;83.90
66710;DHT22;53624;0.000;0.000;2023-03-01T06:51:03;7.80;83.90
66710;DHT22;53624;0.000;0.000;2023-03-01T06:53:30;7.80;83.90
66710;DHT22;53624;0.000;0.000;2023-03-01T06:55:58;7.80;83.90
66710;DHT22;53624;0.000;0.000;2023-03-01T06:58:26;7.80;83.80
66710;DHT22;53624;0.000;0.000;2023-03-01T07:00:55;7.80;83.80
66710;DHT22;53624;0.000;0.000;2023-03-01T07:03:22;7.80;83.80
66710;DHT22;53624;0.000;0.000;2023-03-01T07:05:50;7.80;83.80
66710;DHT22;53624;0.000;0.000;2023-03-01T07:08:18;7.80;83.90
66710;DHT22;53624;0.000;0.000;2023-03-01T07:10:46;7.80;83.80
66710;DHT22;53624;0.000;0.000;2023-03-01T07:13:13;7.80;83.80
66710;DHT22;53624;0.000;0.000;2023-03-01T07:15:41;7.80;83.80
66710;DHT22;53624;0.000;0.000;2023-03-01T07:18:10;7.80;83.80
66710;DHT22;53624;0.000;0.000;2023-03-01T07:20:37;7.80;83.80
66710;DHT22;53624;0.000;0.000;2023-03-01T07:23:05;7.80;83.80
66710;DHT22;53624;0.000;0.000;2023-03-01T07:25:33;7.80;83.80
66710;DHT22;53624;0.000;0.000;2023-03-01T07:28:00;7.80;83.70
66710;DHT22;53624;0.000;0.000;2023-03-01T07:30:27;7.80;83.70
66710;DHT22;53624;0.000;0.000;2023-03-01T07:32:55;7.80;83.70
66710;DHT22;53624;0.000;0.000;2023-03-01T07:35:26;7.80;83.60
66710;DHT22;53624;0.000;0.000;2023-03-01T07:37:54;7.80;83.60
66710;DHT22;53624;0.000;0.000;2023-03-01T07:40:21;7.80;83.60
66710;DHT22;53624;0.000;0.000;2023-03-01T07:42:48;7.80;83.60
66710;DHT22;53624;0.000;0.000;2023-03-01T07:45:16;7.80;83.50
66710;DHT22;53624;0.000;0.000;2023-03-01T07:47:44;7.80;83.50
66710;DHT22;53624;0.000;0.000;2023-03-01T07:50:11;7.80;83.40
66710;DHT22;53624;0.000;0.000;2023-03-01T07:52:40;7.80;83.40
66710;DHT22;53624;0.000;0.000;2023-03-01T07:55:08;7.80;83.40
66710;DHT22;53624;0.000;0.000;2023-03-01T07:57:35;7.80;83.40
66710;DHT22;53624;0.000;0.000;2023-03-01T08:00:03;7.80;83.40
66710;DHT22;53624;0.000;0.000;2023-03-01T08:02:37;7.90;83.40
66710;DHT22;53624;0.000;0.000;2023-03-01T08:05:06;7.90;83.40
66710;DHT22;53624;0.000;0.000;2023-03-01T08:07:34;7.90;83.30
66710;DHT22;53624;0.000;0.000;2023-03-01T08:10:03;7.90;83.30
66710;DHT22;53624;0.000;0.000;2023-03-01T08:12:31;7.90;83.30
66710;DHT22;53624;0.000;0.000;2023-03-01T08:14:58;7.90;83.20
66710;DHT22;53624;0.000;0.000;2023-03-01T08:17:26;7.90;83.20
66710;DHT22;53624;0.000;0.000;2023-03-01T08:19:53;7.90;83.20
66710;DHT22;53624;0.000;0.000;2023-03-01T08:22:20;7.90;83.10
66710;DHT22;53624;0.000;0.000;2023-03-01T08:24:48;7.90;83.10
66710;DHT22;53624;0.000;0.000;2023-03-01T08:27:17;7.90;83.10
66710;DHT22;53624;0.000;0.000;2023-03-01T08:29:44;8.00;83.10
66710;DHT22;53624;0.000;0.000;2023-03-01T08:32:12;8.00;83.10
66710;DHT22;53624;0.000;0.000;2023-03-01T08:34:39;8.00;83.10
66710;DHT22;53624;0.000;0.000;2023-03-01T08:37:07;8.00;83.00
66710;DHT22;53624;0.000;0.000;2023-03-01T08:39:35;8.00;83.00
66710;DHT22;53624;0.000;0.000;2023-03-01T08:42:03;8.00;83.00
66710;DHT22;53624;0.000;0.000;2023-03-01T08:44:32;8.00;83.00
66710;DHT22;53624;0.000;0.000;2023-03-01T08:46:59;8.00;83.00
66710;DHT22;53624;0.000;0.000;2023-03-01T08:49:28;8.00;83.00
66710;DHT22;53624;0.000;0.000;2023-03-01T08:51:55;8.00;83.00
66710;DHT22;53624;0.000;0.000;2023-03-01T08:54:23;8.00;82.90
66710;DHT22;53624;0.000;0.000;2023-03-01T08:56:51;8.10;83.00
66710;DHT22;53624;0.000;0.000;2023-03-01T08:59:18;8.10;83.00
66710;DHT22;53624;0.000;0.000;2023-03-01T09:01:47;8.10;82.90
66710;DHT22;53624;0.000;0.000;2023-03-01T09:04:15;8.10;82.90
66710;DHT22;53624;0.000;0.000;2023-03-01T09:06:42;8.10;82.90
66710;DHT22;53624;0.000;0.000;2023-03-01T09:09:12;8.10;82.90
66710;DHT22;53624;0.000;0.000;2023-03-01T09:11:40;8.10;82.90
66710;DHT22;53624;0.000;0.000;2023-03-01T09:14:08;8.10;82.90
66710;DHT22;53624;0.000;0.000;2023-03-01T09:16:35;8.20;82.90
66710;DHT22;53624;0.000;0.000;2023-03-01T09:19:04;8.20;82.90
66710;DHT22;53624;0.000;0.000;2023-03-01T09:21:31;8.10;82.80
66710;DHT22;53624;0.000;0.000;2023-03-01T09:23:59;8.20;82.90
66710;DHT22;53624;0.000;0.000;2023-03-01T09:26:26;8.10;82.80
66710;DHT22;53624;0.000;0.000;2023-03-01T09:28:55;8.20;82.90
66710;DHT22;53624;0.000;0.000;2023-03-01T09:31:23;8.20;82.90
66710;DHT22;53624;0.000;0.000;2023-03-01T09:33:52;8.20;82.90
66710;DHT22;53624;0.000;0.000;2023-03-01T09:36:22;8.20;82.80
66710;DHT22;53624;0.000;0.000;2023-03-01T09:38:49;8.20;82.80
66710;DHT22;53624;0.000;0.000;2023-03-01T09:41:24;8.20;82.80
66710;DHT22;53624;0.000;0.000;2023-03-01T09:43:53;8.20;82.70
66710;DHT22;53624;0.000;0.000;2023-03-01T09:46:23;8.30;82.80
66710;DHT22;53624;0.000;0.000;2023-03-01T09:48:54;8.30;82.70
66710;DHT22;53624;0.000;0.000;2023-03-01T09:51:25;8.30;82.60
66710;DHT22;53624;0.000;0.000;2023-03-01T09:53:53;8.30;82.60
66710;DHT22;53624;0.000;0.000;2023-03-01T09:56:24;8.40;82.70
66710;DHT22;53624;0.000;0.000;2023-03-01T09:58:54;8.30;82.60
66710;DHT22;53624;0.000;0.000;2023-03-01T10:01:29;8.40;82.60
66710;DHT22;53624;0.000;0.000;2023-03-01T10:04:12;8.40;83.30
66710;DHT22;53624;0.000;0.000;2023-03-01T10:06:45;8.40;82.50
66710;DHT22;53624;0.000;0.000;2023-03-01T10:09:16;8.40;82.50
66710;DHT22;53624;0.000;0.000;2023-03-01T10:11:45;8.50;83.30
66710;DHT22;53624;0.000;0.000;2023-03-01T10:14:15;8.50;82.50
66710;DHT22;53624;0.000;0.000;2023-03-01T10:16:46;8.50;82.50
66710;DHT22;53624;0.000;0.000;2023-03-01T10:19:17;8.50;82.50
66710;DHT22;53624;0.000;0.000;2023-03-01T10:21:49;8.50;82.50
66710;DHT22;53624;0.000;0.000;2023-03-01T10:24:18;8.50;82.40
66710;DHT22;53624;0.000;0.000;2023-03-01T10:26:48;8.60;82.40
66710;DHT22;53624;0.000;0.000;2023-03-01T10:29:18;8.60;82.40
66710;DHT22;53624;0.000;0.000;2023-03-01T10:31:48;8.60;82.40
66710;DHT22;53624;0.000;0.000;2023-03-01T10:34:17;8.60;82.30
66710;DHT22;53624;0.000;0.000;2023-03-01T10:36:47;8.60;82.30
66710;DHT22;53624;0.000;0.000;2023-03-01T10:39:17;8.60;82.30
66710;DHT22;53624;0.000;0.000;2023-03-01T10:41:55;8.70;82.30
66710;DHT22;53624;0.000;0.000;2023-03-01T10:44:35;8.70;82.30
66710;DHT22;53624;0.000;0.000;2023-03-01T10:47:03;8.70;82.20
66710;DHT22;53624;0.000;0.000;2023-03-01T10:49:31;8.70;82.20
66710;DHT22;53624;0.000;0.000;2023-03-01T10:51:58;8.70;82.20
66710;DHT22;53624;0.000;0.000;2023-03-01T10:54:39;8.80;82.20
66710;DHT22;53624;0.000;0.000;2023-03-01T10:57:10;8.80;82.20
66710;DHT22;53624;0.000;0.000;2023-03-01T11:00:00;8.80;82.20
66710;DHT22;53624;0.000;0.000;2023-03-01T11:02:28;8.80;82.20
66710;DHT22;53624;0.000;0.000;2023-03-01T11:04:57;8.80;82.20
66710;DHT22;53624;0.000;0.000;2023-03-01T11:07:25;8.80;82.20
66710;DHT22;53624;0.000;0.000;2023-03-01T11:09:54;8.80;82.20
66710;DHT22;53624;0.000;0.000;2023-03-01T11:12:22;8.80;82.20
66710;DHT22;53624;0.000;0.000;2023-03-01T11:14:50;8.80;82.20
66710;DHT22;53624;0.000;0.000;2023-03-01T11:17:20;8.90;82.20
66710;DHT22;53624;0.000;0.000;2023-03-01T11:19:59;8.90;82.10
66710;DHT22;53624;0.000;0.000;2023-03-01T11:22:27;8.90;82.10
66710;DHT22;53624;0.000;0.000;2023-03-01T11:24:56;8.90;82.00
66710;DHT22;53624;0.000;0.000;2023-03-01T11:27:24;9.00;82.00
66710;DHT22;53624;0.000;0.000;2023-03-01T11:29:55;9.00;82.00
66710;DHT22;53624;0.000;0.000;2023-03-01T11:32:25;9.00;82.00
66710;DHT22;53624;0.000;0.000;2023-03-01T11:34:54;9.00;81.90
66710;DHT22;53624;0.000;0.000;2023-03-01T11:37:28;9.10;81.80
66710;DHT22;53624;0.000;0.000;2023-03-01T11:40:03;9.10;81.80
66710;DHT22;53624;0.000;0.000;2023-03-01T11:42:37;9.10;81.70
66710;DHT22;53624;0.000;0.000;2023-03-01T11:45:08;9.10;81.60
66710;DHT22;53624;0.000;0.000;2023-03-01T11:47:47;9.20;81.60
66710;DHT22;53624;0.000;0.000;2023-03-01T11:50:19;9.20;81.60
66710;DHT22;53624;0.000;0.000;2023-03-01T11:52:50;9.20;81.60
66710;DHT22;53624;0.000;0.000;2023-03-01T11:55:26;9.20;81.50
66710;DHT22;53624;0.000;0.000;2023-03-01T11:58:01;9.30;81.50
66710;DHT22;53624;0.000;0.000;2023-03-01T12:00:37;9.30;81.50
66710;DHT22;53624;0.000;0.000;2023-03-01T12:03:14;9.30;81.40
66710;DHT22;53624;0.000;0.000;2023-03-01T12:05:51;9.40;81.20
66710;DHT22;53624;0.000;0.000;2023-03-01T12:08:24;9.40;81.30
66710;DHT22;53624;0.000;0.000;2023-03-01T12:10:56;9.40;81.30
66710;DHT22;53624;0.000;0.000;2023-03-01T12:13:33;9.50;81.40
66710;DHT22;53624;0.000;0.000;2023-03-01T12:16:10;9.50;81.30
66710;DHT22;53624;0.000;0.000;2023-03-01T12:18:44;9.50;81.30
66710;DHT22;53624;0.000;0.000;2023-03-01T12:21:19;9.60;81.30
66710;DHT22;53624;0.000;0.000;2023-03-01T12:24:02;9.60;81.20
66710;DHT22;53624;0.000;0.000;2023-03-01T12:26:34;9.60;81.20
66710;DHT22;53624;0.000;0.000;2023-03-01T12:29:14;9.70;81.20
66710;DHT22;53624;0.000;0.000;2023-03-01T12:32:04;9.70;81.20
66710;DHT22;53624;0.000;0.000;2023-03-01T12:34:38;9.70;81.20
66710;DHT22;53624;0.000;0.000;2023-03-01T12:37:21;9.80;81.20
66710;DHT22;53624;0.000;0.000;2023-03-01T12:39:52;9.80;81.30
66710;DHT22;53624;0.000;0.000;2023-03-01T12:42:25;9.90;81.30
66710;DHT22;53624;0.000;0.000;2023-03-01T12:45:05;9.80;81.20
66710;DHT22;53624;0.000;0.000;2023-03-01T12:47:44;9.90;81.20
66710;DHT22;53624;0.000;0.000;2023-03-01T12:50:14;9.90;81.30
66710;DHT22;53624;0.000;0.000;2023-03-01T12:52:46;9.90;81.20
66710;DHT22;53624;0.000;0.000;2023-03-01T12:55:18;9.90;81.20
66710;DHT22;53624;0.000;0.000;2023-03-01T12:57:51;9.90;81.20
66710;DHT22;53624;0.000;0.000;2023-03-01T13:00:25;10.00;81.30
66710;DHT22;53624;0.000;0.000;2023-03-01T13:02:55;10.00;81.30
66710;DHT22;53624;0.000;0.000;2023-03-01T13:05:28;10.00;81.40
66710;DHT22;53624;0.000;0.000;2023-03-01T13:08:01;10.00;81.30
66710;DHT22;53624;0.000;0.000;2023-03-01T13:10:33;10.00;81.30
66710;DHT22;53624;0.000;0.000;2023-03-01T13:13:10;10.00;81.30
66710;DHT22;53624;0.000;0.000;2023-03-01T13:15:39;10.00;81.30
66710;DHT22;53624;0.000;0.000;2023-03-01T13:20:50;10.00;81.50
66710;DHT22;53624;0.000;0.000;2023-03-01T13:23:24;10.10;81.60
66710;DHT22;53624;0.000;0.000;2023-03-01T13:26:05;10.10;81.40
66710;DHT22;53624;0.000;0.000;2023-03-01T13:34:19;10.10;81.50
66710;DHT22;53624;0.000;0.000;2023-03-01T13:37:10;10.10;81.60
66710;DHT22;53624;0.000;0.000;2023-03-01T13:39:39;10.10;81.60
66710;DHT22;53624;0.000;0.000;2023-03-01T13:44:49;10.10;81.70
66710;DHT22;53624;0.000;0.000;2023-03-01T13:47:17;10.10;81.70
66710;DHT22;53624;0.000;0.000;2023-03-01T13:49:47;10.10;81.80
66710;DHT22;53624;0.000;0.000;2023-03-01T13:52:36;10.10;81.80
66710;DHT22;53624;0.000;0.000;2023-03-01T13:55:06;10.10;81.80
66710;DHT22;53624;0.000;0.000;2023-03-01T13:57:43;10.10;81.70
66710;DHT22;53624;0.000;0.000;2023-03-01T14:00:24;10.10;81.90
66710;DHT22;53624;0.000;0.000;2023-03-01T14:02:59;10.00;81.60
66710;DHT22;53624;0.000;0.000;2023-03-01T14:05:28;10.10;81.80
66710;DHT22;53624;0.000;0.000;2023-03-01T14:07:55;10.10;81.80
66710;DHT22;53624;0.000;0.000;2023-03-01T14:10:24;10.10;81.90
66710;DHT22;53624;0.000;0.000;2023-03-01T14:12:55;10.00;81.80
66710;DHT22;53624;0.000;0.000;2023-03-01T14:15:29;10.00;82.00
66710;DHT22;53624;0.000;0.000;2023-03-01T14:17:59;10.00;82.00
66710;DHT22;53624;0.000;0.000;2023-03-01T14:20:30;10.00;81.90
66710;DHT22;53624;0.000;0.000;2023-03-01T14:22:59;10.00;81.80
66710;DHT22;53624;0.000;0.000;2023-03-01T14:25:28;10.00;82.00
66710;DHT22;53624;0.000;0.000;2023-03-01T14:27:58;10.00;81.90
66710;DHT22;53624;0.000;0.000;2023-03-01T14:30:26;10.00;82.00
66710;DHT22;53624;0.000;0.000;2023-03-01T14:32:55;10.00;82.10
66710;DHT22;53624;0.000;0.000;2023-03-01T14:35:23;10.00;82.10
66710;DHT22;53624;0.000;0.000;2023-03-01T14:37:53;10.00;82.10
66710;DHT22;53624;0.000;0.000;2023-03-01T14:40:23;10.00;82.10
66710;DHT22;53624;0.000;0.000;2023-03-01T14:42:51;9.90;82.10
66710;DHT22;53624;0.000;0.000;2023-03-01T14:45:18;9.90;82.10
66710;DHT22;53624;0.000;0.000;2023-03-01T14:47:47;9.90;82.20
66710;DHT22;53624;0.000;0.000;2023-03-01T14:50:22;9.90;82.30
66710;DHT22;53624;0.000;0.000;2023-03-01T14:52:51;9.80;82.20
66710;DHT22;53624;0.000;0.000;2023-03-01T14:55:21;9.80;82.20
66710;DHT22;53624;0.000;0.000;2023-03-01T14:57:52;9.80;82.30
66710;DHT22;53624;0.000;0.000;2023-03-01T15:00:20;9.80;82.30
66710;DHT22;53624;0.000;0.000;2023-03-01T15:02:48;9.80;82.30
66710;DHT22;53624;0.000;0.000;2023-03-01T15:05:18;9.80;82.40
66710;DHT22;53624;0.000;0.000;2023-03-01T15:07:45;9.80;82.40
66710;DHT22;53624;0.000;0.000;2023-03-01T15:10:17;9.80;82.40
66710;DHT22;53624;0.000;0.000;2023-03-01T15:12:48;9.70;82.30
66710;DHT22;53624;0.000;0.000;2023-03-01T15:15:23;9.70;82.40
66710;DHT22;53624;0.000;0.000;2023-03-01T15:17:57;9.70;82.50
66710;DHT22;53624;0.000;0.000;2023-03-01T15:20:26;9.70;82.50
66710;DHT22;53624;0.000;0.000;2023-03-01T15:22:55;9.70;82.60
66710;DHT22;53624;0.000;0.000;2023-03-01T15:25:23;9.60;82.50
66710;DHT22;53624;0.000;0.000;2023-03-01T15:27:53;9.60;82.50
66710;DHT22;53624;0.000;0.000;2023-03-01T15:30:22;9.60;82.50
66710;DHT22;53624;0.000;0.000;2023-03-01T15:35:38;9.60;82.70
66710;DHT22;53624;0.000;0.000;2023-03-01T15:40:49;9.60;82.80
66710;DHT22;53624;0.000;0.000;2023-03-01T15:46:00;9.50;82.80
66710;DHT22;53624;0.000;0.000;2023-03-01T15:48:28;9.50;83.00
66710;DHT22;53624;0.000;0.000;2023-03-01T15:50:56;9.50;82.90
66710;DHT22;53624;0.000;0.000;2023-03-01T15:53:24;9.50;83.00
66710;DHT22;53624;0.000;0.000;2023-03-01T15:55:54;9.50;82.90
66710;DHT22;53624;0.000;0.000;2023-03-01T15:58:24;9.40;82.90
66710;DHT22;53624;0.000;0.000;2023-03-01T16:00:52;9.40;82.90
66710;DHT22;53624;0.000;0.000;2023-03-01T16:03:23;9.40;83.00
66710;DHT22;53624;0.000;0.000;2023-03-01T16:05:50;9.40;83.00
66710;DHT22;53624;0.000;0.000;2023-03-01T16:08:18;9.40;83.00
66710;DHT22;53624;0.000;0.000;2023-03-01T16:10:45;9.40;83.10
66710;DHT22;53624;0.000;0.000;2023-03-01T16:13:15;9.40;83.10
66710;DHT22;53624;0.000;0.000;2023-03-01T16:15:43;9.30;83.10
66710;DHT22;53624;0.000;0.000;2023-03-01T16:18:10;9.30;83.20
66710;DHT22;53624;0.000;0.000;2023-03-01T16:20:39;9.30;83.20
66710;DHT22;53624;0.000;0.000;2023-03-01T16:23:08;9.30;83.20
66710;DHT22;53624;0.000;0.000;2023-03-01T16:25:35;9.30;83.30
66710;DHT22;53624;0.000;0.000;2023-03-01T16:28:03;9.30;83.30
66710;DHT22;53624;0.000;0.000;2023-03-01T16:30:34;9.30;83.40
66710;DHT22;53624;0.000;0.000;2023-03-01T16:33:02;9.20;83.30
66710;DHT22;53624;0.000;0.000;2023-03-01T16:35:32;9.20;83.30